createdAt,value
2019-03-22T00:02:35.494Z,102755.13
2019-03-22T00:06:42.297Z,102753.67
2019-03-22T00:10:48.544Z,102749.30
2019-03-22T00:14:54.814Z,102743.50
2019-03-22T00:19:01.330Z,102744.95
2019-03-22T00:23:07.584Z,102734.77
2019-03-22T00:27:16.739Z,102736.64
2019-03-22T00:31:21.803Z,102732.67
2019-03-22T00:35:27.978Z,102724.94
2019-03-22T00:39:34.513Z,102725.07
2019-03-22T00:43:40.767Z,102721.70
2019-03-22T00:47:47.051Z,102724.31
2019-03-22T00:51:53.381Z,102723.34
2019-03-22T00:55:59.641Z,102721.33
2019-03-22T01:00:06.896Z,102723.58
2019-03-22T01:04:13.148Z,102730.53
2019-03-22T01:08:19.639Z,102730.66
2019-03-22T01:12:25.897Z,102732.87
2019-03-22T01:16:32.152Z,102732.63
2019-03-22T01:20:38.702Z,102738.63
2019-03-22T01:24:44.969Z,102735.97
2019-03-22T01:28:51.214Z,102729.22
2019-03-22T01:32:57.401Z,102733.95
2019-03-22T01:37:03.665Z,102729.56
2019-03-22T01:41:10.424Z,102735.20
2019-03-22T01:45:18.183Z,102724.56
2019-03-22T01:49:24.375Z,102717.95
2019-03-22T01:53:30.621Z,102713.34
2019-03-22T01:57:36.875Z,102713.69
2019-03-22T02:01:43.142Z,102714.04
2019-03-22T02:05:49.303Z,102721.90
2019-03-22T02:09:55.710Z,102722.59
2019-03-22T02:14:01.804Z,102710.69
2019-03-22T02:18:08.453Z,102706.36
2019-03-22T02:22:14.693Z,102702.31
2019-03-22T02:26:20.969Z,102705.62
2019-03-22T02:30:27.215Z,102701.34
2019-03-22T02:34:33.424Z,102704.80
2019-03-22T02:38:39.675Z,102708.00
2019-03-22T02:42:46.146Z,102697.98
2019-03-22T02:46:52.296Z,102695.34
2019-03-22T02:50:58.851Z,102693.45
2019-03-22T02:55:05.593Z,102693.98
2019-03-22T02:59:11.964Z,102688.45
2019-03-22T03:03:18.221Z,102683.14
2019-03-22T03:07:24.489Z,102688.83
2019-03-22T03:11:31.043Z,102687.87
2019-03-22T03:15:37.327Z,102688.55
2019-03-22T03:23:49.363Z,102681.81
2019-03-22T03:27:55.601Z,102679.21
2019-03-22T03:32:01.884Z,102684.95
2019-03-22T03:36:08.190Z,102691.58
2019-03-22T03:40:15.031Z,102692.58
2019-03-22T03:44:21.298Z,102682.88
2019-03-22T03:48:27.496Z,102694.86
2019-03-22T03:52:33.750Z,102687.44
2019-03-22T03:56:40.019Z,102686.39
2019-03-22T04:00:46.265Z,102691.13
2019-03-22T04:04:52.515Z,102676.39
2019-03-22T04:08:58.815Z,102683.02
2019-03-22T04:13:05.053Z,102675.02
2019-03-22T04:17:11.335Z,102680.42
2019-03-22T04:21:17.569Z,102678.52
2019-03-22T04:25:23.848Z,102679.23
2019-03-22T04:29:30.131Z,102673.44
2019-03-22T04:33:36.312Z,102680.61
2019-03-22T04:37:42.588Z,102667.89
2019-03-22T04:41:48.876Z,102673.50
2019-03-22T04:45:57.012Z,102685.05
2019-03-22T04:50:03.837Z,102679.57
2019-03-22T04:54:11.191Z,102679.68
2019-03-22T04:58:19.619Z,102683.45
2019-03-22T05:02:26.522Z,102683.66
2019-03-22T05:06:35.834Z,102680.55
2019-03-22T05:10:42.524Z,102677.16
2019-03-22T05:14:49.837Z,102683.34
2019-03-22T05:18:59.142Z,102683.55
2019-03-22T05:23:07.010Z,102684.91
2019-03-22T05:27:14.607Z,102679.13
2019-03-22T05:32:00.003Z,102675.86
2019-03-22T05:36:06.265Z,102671.09
2019-03-22T05:40:12.617Z,102669.36
2019-03-22T05:44:19.263Z,102668.97
2019-03-22T05:48:25.604Z,102680.05
2019-03-22T05:52:31.810Z,102681.70
2019-03-22T05:56:38.229Z,102683.61
2019-03-22T06:00:44.428Z,102687.83
2019-03-22T06:04:50.707Z,102695.69
2019-03-22T06:08:57.219Z,102695.09
2019-03-22T06:13:03.464Z,102705.36
2019-03-22T06:17:09.659Z,102706.88
2019-03-22T06:21:15.988Z,102711.61
2019-03-22T06:25:22.191Z,102709.67
2019-03-22T06:29:28.533Z,102710.90
2019-03-22T06:33:34.805Z,102709.84
2019-03-22T06:37:41.159Z,102708.78
2019-03-22T06:41:47.440Z,102709.48
2019-03-22T06:45:53.906Z,102706.83
2019-03-22T06:50:00.420Z,102711.41
2019-03-22T06:54:07.115Z,102720.00
2019-03-22T06:58:13.428Z,102726.58
2019-03-22T07:02:19.583Z,102727.38
2019-03-22T07:06:28.444Z,102731.83
2019-03-22T07:10:35.342Z,102730.43
2019-03-22T07:14:41.701Z,102731.69
2019-03-22T07:18:47.900Z,102743.36
2019-03-22T07:22:54.161Z,102738.39
2019-03-22T07:27:00.475Z,102738.83
2019-03-22T07:31:06.852Z,102742.84
2019-03-22T07:35:13.117Z,102741.41
2019-03-22T07:39:19.910Z,102745.02
2019-03-22T07:43:26.657Z,102740.38
2019-03-22T07:47:32.913Z,102737.67
2019-03-22T07:51:39.278Z,102729.62
2019-03-22T07:55:45.958Z,102732.16
2019-03-22T07:59:52.587Z,102743.50
2019-03-22T08:03:59.487Z,102745.52
2019-03-22T08:08:05.758Z,102737.11
2019-03-22T08:12:12.273Z,102741.75
2019-03-22T08:16:18.371Z,102746.70
2019-03-22T08:20:24.679Z,102735.68
2019-03-22T08:24:30.969Z,102728.92
2019-03-22T08:28:37.627Z,102733.62
2019-03-22T08:32:44.198Z,102727.87
2019-03-22T08:36:51.457Z,102733.13
2019-03-22T08:40:57.715Z,102728.50
2019-03-22T08:45:04.245Z,102727.80
2019-03-22T08:49:10.553Z,102714.34
2019-03-22T08:53:16.714Z,102710.61
2019-03-22T08:57:24.931Z,102715.08
2019-03-22T09:01:31.511Z,102711.34
2019-03-22T09:05:38.186Z,102712.78
2019-03-22T09:09:44.543Z,102706.20
2019-03-22T09:13:53.570Z,102704.13
2019-03-22T09:17:58.498Z,102696.01
2019-03-22T09:22:05.012Z,102696.25
2019-03-22T09:26:11.350Z,102696.42
2019-03-22T09:30:17.985Z,102691.77
2019-03-22T09:34:33.485Z,102691.00
2019-03-22T09:38:32.609Z,102681.52
2019-03-22T09:42:38.886Z,102668.66
2019-03-22T09:46:45.063Z,102674.24
2019-03-22T09:50:51.318Z,102665.02
2019-03-22T09:54:57.775Z,102659.61
2019-03-22T09:59:04.074Z,102651.31
2019-03-22T10:03:10.240Z,102644.34
2019-03-22T10:07:16.449Z,102634.00
2019-03-22T10:11:22.740Z,102631.61
2019-03-22T10:15:29.023Z,102626.23
2019-03-22T10:19:35.510Z,102615.81
2019-03-22T10:23:41.595Z,102613.70
2019-03-22T10:27:48.257Z,102611.88
2019-03-22T10:31:54.568Z,102615.57
2019-03-22T10:36:00.825Z,102614.95
2019-03-22T10:40:08.084Z,102608.58
2019-03-22T10:44:14.239Z,102605.19
2019-03-22T10:48:20.517Z,102601.03
2019-03-22T10:52:26.615Z,102596.13
2019-03-22T10:56:32.892Z,102595.36
2019-03-22T11:00:39.221Z,102583.50
2019-03-22T11:04:45.529Z,102580.25
2019-03-22T11:08:51.813Z,102579.22
2019-03-22T11:12:58.008Z,102565.35
2019-03-22T11:17:04.308Z,102564.98
2019-03-22T11:21:10.848Z,102556.84
2019-03-22T11:25:17.108Z,102547.31
2019-03-22T11:29:23.320Z,102552.03
2019-03-22T11:33:29.614Z,102535.68
2019-03-22T11:37:35.829Z,102540.12
2019-03-22T11:41:42.108Z,102535.95
2019-03-22T11:45:48.606Z,102530.38
2019-03-22T11:49:55.463Z,102530.09
2019-03-22T11:54:01.690Z,102519.09
2019-03-22T11:58:07.968Z,102513.47
2019-03-22T12:02:22.173Z,102499.84
2019-03-22T12:06:23.108Z,102492.94
2019-03-22T12:10:29.529Z,102491.94
2019-03-22T12:14:35.789Z,102480.31
2019-03-22T12:18:42.105Z,102470.39
2019-03-22T12:22:48.475Z,102468.90
2019-03-22T12:26:54.664Z,102453.95
2019-03-22T12:31:01.246Z,102447.29
2019-03-22T12:35:09.967Z,102445.97
2019-03-22T12:39:16.391Z,102433.16
2019-03-22T12:43:22.717Z,102428.83
2019-03-22T12:47:29.405Z,102421.65
2019-03-22T12:51:35.733Z,102412.41
2019-03-22T12:55:42.148Z,102409.56
2019-03-22T12:59:48.450Z,102404.40
2019-03-22T13:03:54.835Z,102401.97
2019-03-22T13:08:01.200Z,102403.77
2019-03-22T13:12:07.625Z,102394.06
2019-03-22T13:16:14.175Z,102375.44
2019-03-22T13:20:20.420Z,102363.28
2019-03-22T13:24:27.851Z,102360.56
2019-03-22T13:28:34.092Z,102360.40
2019-03-22T13:32:40.509Z,102350.02
2019-03-22T13:36:46.992Z,102348.18
2019-03-22T13:40:53.573Z,102337.91
2019-03-22T13:44:59.832Z,102326.13
2019-03-22T13:49:06.455Z,102328.70
2019-03-22T13:53:12.750Z,102321.48
2019-03-22T13:57:18.995Z,102314.89
2019-03-22T14:01:25.217Z,102317.30
2019-03-22T14:05:31.559Z,102308.39
2019-03-22T14:09:37.850Z,102301.05
2019-03-22T14:13:44.617Z,102295.47
2019-03-22T14:17:50.884Z,102287.44
2019-03-22T14:21:57.009Z,102288.05
2019-03-22T14:26:03.373Z,102279.55
2019-03-22T14:30:10.389Z,102280.31
2019-03-22T14:34:19.902Z,102270.92
2019-03-22T14:38:26.356Z,102260.92
2019-03-22T14:42:32.719Z,102261.20
2019-03-22T14:46:39.045Z,102254.36
2019-03-22T14:50:45.384Z,102248.56
2019-03-22T14:54:51.633Z,102247.80
2019-03-22T14:58:57.805Z,102239.94
2019-03-22T15:03:06.121Z,102241.17
2019-03-22T15:07:19.507Z,102233.94
2019-03-22T15:11:20.960Z,102238.58
2019-03-22T15:15:54.832Z,102234.61
2019-03-22T15:20:32.608Z,102225.80
2019-03-22T15:24:57.607Z,102220.47
2019-03-22T15:29:22.009Z,102211.65
2019-03-22T15:33:50.580Z,102202.06
2019-03-22T15:38:27.719Z,102203.95
2019-03-22T15:42:34.002Z,102197.88
2019-03-22T15:46:40.337Z,102203.98
2019-03-22T15:50:46.607Z,102190.36
2019-03-22T15:54:52.915Z,102191.60
2019-03-22T15:58:59.282Z,102191.12
2019-03-22T16:03:06.635Z,102194.75
2019-03-22T16:07:12.883Z,102188.20
2019-03-22T16:11:19.119Z,102190.19
2019-03-22T16:15:36.723Z,102187.18
2019-03-22T16:19:46.138Z,102182.52
2019-03-22T16:23:52.473Z,102171.37
2019-03-22T16:27:59.283Z,102175.56
2019-03-22T16:32:05.630Z,102182.02
2019-03-22T16:36:12.248Z,102176.92
2019-03-22T16:40:24.044Z,102170.38
2019-03-22T16:44:26.852Z,102170.42
2019-03-22T16:48:33.626Z,102169.17
2019-03-22T16:52:39.849Z,102167.40
2019-03-22T16:56:46.042Z,102163.16
2019-03-22T17:00:52.396Z,102156.38
2019-03-22T17:04:58.630Z,102144.81
2019-03-22T17:09:06.057Z,102144.20
2019-03-22T17:13:12.590Z,102149.50
2019-03-22T17:17:18.876Z,102146.72
2019-03-22T17:21:25.166Z,102149.18
2019-03-22T17:25:31.474Z,102146.30
2019-03-22T17:29:37.755Z,102143.42
2019-03-22T17:33:43.960Z,102135.21
2019-03-22T17:37:50.176Z,102141.30
2019-03-22T17:41:56.462Z,102143.09
2019-03-22T17:46:02.641Z,102148.66
2019-03-22T17:50:09.344Z,102152.51
2019-03-22T17:54:15.565Z,102157.03
2019-03-22T17:58:21.653Z,102143.40
2019-03-22T18:02:27.889Z,102153.56
2019-03-22T18:06:34.355Z,102150.22
2019-03-22T18:10:40.639Z,102155.20
2019-03-22T18:14:46.806Z,102158.52
2019-03-22T18:18:53.060Z,102165.02
2019-03-22T18:22:59.330Z,102168.66
2019-03-22T18:27:05.633Z,102175.19
2019-03-22T18:31:11.898Z,102175.55
2019-03-22T18:35:18.141Z,102180.56
2019-03-22T18:39:24.564Z,102181.74
2019-03-22T18:43:30.821Z,102194.77
2019-03-22T18:47:37.056Z,102191.11
2019-03-22T18:51:43.234Z,102191.27
2019-03-22T18:55:49.452Z,102197.09
2019-03-22T18:59:55.727Z,102197.34
2019-03-22T19:04:01.895Z,102190.11
2019-03-22T19:08:08.152Z,102204.66
2019-03-22T19:12:14.464Z,102202.72
2019-03-22T19:16:20.838Z,102208.06
2019-03-22T19:20:27.101Z,102206.52
2019-03-22T19:24:33.278Z,102211.33
2019-03-22T19:28:39.635Z,102206.27
2019-03-22T19:32:45.888Z,102199.00
2019-03-22T19:36:52.204Z,102196.55
2019-03-22T19:40:58.735Z,102198.17
2019-03-22T19:45:05.995Z,102193.61
2019-03-22T19:49:12.673Z,102193.11
2019-03-22T19:53:18.932Z,102194.20
2019-03-22T19:57:25.203Z,102198.03
2019-03-22T20:01:31.513Z,102197.38
2019-03-22T20:05:38.255Z,102201.37
2019-03-22T20:09:44.446Z,102198.44
2019-03-22T20:13:50.712Z,102192.94
2019-03-22T20:17:56.918Z,102196.03
2019-03-22T20:22:03.393Z,102213.26
2019-03-22T20:26:09.642Z,102206.35
2019-03-22T20:30:16.574Z,102201.87
2019-03-22T20:34:22.776Z,102206.91
2019-03-22T20:38:29.318Z,102203.27
2019-03-22T20:42:35.998Z,102195.62
2019-03-22T20:46:42.266Z,102202.75
2019-03-22T20:50:48.649Z,102199.89
2019-03-22T20:54:55.019Z,102194.62
2019-03-22T20:59:01.092Z,102192.22
2019-03-22T21:03:07.396Z,102197.00
2019-03-22T21:07:13.678Z,102187.84
2019-03-22T21:11:20.370Z,102183.81
2019-03-22T21:15:26.847Z,102193.09
2019-03-22T21:19:33.601Z,102201.89
2019-03-22T21:23:39.912Z,102196.75
2019-03-22T21:27:46.348Z,102189.88
2019-03-22T21:31:52.845Z,102187.66
2019-03-22T21:35:59.538Z,102191.97
2019-03-22T21:40:06.701Z,102202.28
2019-03-22T21:44:13.362Z,102197.05
2019-03-22T21:48:19.757Z,102195.13
2019-03-22T21:52:25.927Z,102197.66
2019-03-22T21:56:32.408Z,102196.17
2019-03-22T22:00:39.033Z,102200.66
2019-03-22T22:04:45.390Z,102200.31
2019-03-22T22:08:51.707Z,102206.57
2019-03-22T22:12:58.195Z,102213.23
2019-03-22T22:17:04.646Z,102202.42
2019-03-22T22:21:10.951Z,102207.66
2019-03-22T22:25:17.308Z,102209.03
2019-03-22T22:29:25.044Z,102212.15
2019-03-22T22:33:31.730Z,102216.34
2019-03-22T22:37:38.303Z,102217.80
2019-03-22T22:41:44.776Z,102221.56
2019-03-22T22:45:51.838Z,102228.28
2019-03-22T22:49:58.064Z,102229.83
2019-03-22T22:54:04.317Z,102240.34
2019-03-22T22:58:10.838Z,102234.70
2019-03-22T23:02:18.133Z,102234.63
2019-03-22T23:06:24.817Z,102234.63
2019-03-22T23:10:31.203Z,102243.59
2019-03-22T23:14:37.947Z,102248.95
2019-03-22T23:18:44.717Z,102251.98
2019-03-22T23:22:51.049Z,102257.36
2019-03-22T23:26:57.349Z,102247.94
2019-03-22T23:31:03.810Z,102245.22
2019-03-22T23:35:11.135Z,102254.64
2019-03-22T23:39:17.398Z,102249.77
2019-03-22T23:43:23.744Z,102249.33
2019-03-22T23:47:30.077Z,102252.66
2019-03-22T23:51:36.355Z,102251.61
2019-03-22T23:55:42.602Z,102248.13
2019-03-22T23:59:48.894Z,102248.95
